Terminal Aerodrome Forecast
Issued by NWS Jackson, MS

Home | Current Version | Previous Version | Text Only | Print | Product List | Glossary On
Versions: 1 2 3 4 5 6 7 8 9 10 11 12 13 14
000
FTUS44 KJAN 180544
TAFHBG
TAF
KHBG 180544Z 1806/1906 36005KT P6SM SCT015 BKN025
     FM180700 03005KT P6SM BKN015 OVC080
     FM181900 17005KT P6SM SCT025 BKN100=

USA.gov is the U.S. government's official web portal to all federal, state and local government web resources and services.